sensor_id;sensor_type;location;lat;lon;timestamp;pressure;altitude;pressure_sealevel;temperature;humidity
52983;BME280;48698;45.736;13.926;2023-12-29T00:01:32;98481.91;;;6.82;100.00
52983;BME280;48698;45.736;13.926;2023-12-29T00:06:39;98534.19;;;7.05;100.00
52983;BME280;48698;45.736;13.926;2023-12-29T00:11:58;98450.88;;;6.53;100.00
52983;BME280;48698;45.736;13.926;2023-12-29T00:17:02;98395.38;;;6.18;100.00
52983;BME280;48698;45.736;13.926;2023-12-29T00:22:06;98307.03;;;5.99;100.00
52983;BME280;48698;45.736;13.926;2023-12-29T00:27:10;98359.34;;;6.18;100.00
52983;BME280;48698;45.736;13.926;2023-12-29T00:32:14;98419.03;;;6.62;100.00
52983;BME280;48698;45.736;13.926;2023-12-29T00:37:17;98399.47;;;6.69;100.00
52983;BME280;48698;45.736;13.926;2023-12-29T00:42:21;98472.00;;;6.92;100.00
52983;BME280;48698;45.736;13.926;2023-12-29T00:47:25;98488.34;;;7.07;100.00
52983;BME280;48698;45.736;13.926;2023-12-29T00:52:28;98496.38;;;7.03;100.00
52983;BME280;48698;45.736;13.926;2023-12-29T00:57:32;98395.53;;;6.50;100.00
52983;BME280;48698;45.736;13.926;2023-12-29T01:02:36;98443.44;;;6.70;100.00
52983;BME280;48698;45.736;13.926;2023-12-29T01:07:40;98480.16;;;6.83;100.00
52983;BME280;48698;45.736;13.926;2023-12-29T01:12:44;98481.13;;;6.79;100.00
52983;BME280;48698;45.736;13.926;2023-12-29T01:17:48;98330.22;;;5.83;100.00
52983;BME280;48698;45.736;13.926;2023-12-29T01:22:52;98520.81;;;7.12;100.00
52983;BME280;48698;45.736;13.926;2023-12-29T01:27:56;98456.44;;;6.80;100.00
52983;BME280;48698;45.736;13.926;2023-12-29T01:32:59;98522.38;;;7.21;100.00
52983;BME280;48698;45.736;13.926;2023-12-29T01:38:03;98436.13;;;6.45;100.00
52983;BME280;48698;45.736;13.926;2023-12-29T01:43:07;98488.38;;;6.69;100.00
52983;BME280;48698;45.736;13.926;2023-12-29T01:48:11;98447.19;;;6.60;100.00
52983;BME280;48698;45.736;13.926;2023-12-29T01:53:15;98439.19;;;6.65;100.00
52983;BME280;48698;45.736;13.926;2023-12-29T01:58:19;98429.56;;;6.62;100.00
52983;BME280;48698;45.736;13.926;2023-12-29T02:03:23;98457.59;;;6.68;100.00
52983;BME280;48698;45.736;13.926;2023-12-29T02:08:28;98480.16;;;6.83;100.00
52983;BME280;48698;45.736;13.926;2023-12-29T02:13:31;98430.75;;;6.49;100.00
52983;BME280;48698;45.736;13.926;2023-12-29T02:18:37;98378.47;;;6.27;100.00
52983;BME280;48698;45.736;13.926;2023-12-29T02:23:42;98376.91;;;6.19;100.00
52983;BME280;48698;45.736;13.926;2023-12-29T02:28:53;98457.53;;;6.69;100.00
52983;BME280;48698;45.736;13.926;2023-12-29T02:34:01;98436.34;;;6.74;100.00
52983;BME280;48698;45.736;13.926;2023-12-29T02:39:06;98388.94;;;6.31;100.00
52983;BME280;48698;45.736;13.926;2023-12-29T02:44:11;98349.81;;;6.13;100.00
52983;BME280;48698;45.736;13.926;2023-12-29T02:49:15;98375.81;;;6.28;100.00
52983;BME280;48698;45.736;13.926;2023-12-29T02:54:18;98463.59;;;6.74;100.00
52983;BME280;48698;45.736;13.926;2023-12-29T02:59:21;98439.91;;;6.71;100.00
52983;BME280;48698;45.736;13.926;2023-12-29T03:04:25;98368.44;;;6.04;100.00
52983;BME280;48698;45.736;13.926;2023-12-29T03:09:28;98414.19;;;6.43;100.00
52983;BME280;48698;45.736;13.926;2023-12-29T03:14:32;98409.75;;;6.45;100.00
52983;BME280;48698;45.736;13.926;2023-12-29T03:19:36;98339.91;;;5.81;100.00
52983;BME280;48698;45.736;13.926;2023-12-29T03:24:40;98406.66;;;6.26;100.00
52983;BME280;48698;45.736;13.926;2023-12-29T03:29:45;98394.22;;;6.31;100.00
52983;BME280;48698;45.736;13.926;2023-12-29T03:34:49;98309.69;;;5.99;100.00
52983;BME280;48698;45.736;13.926;2023-12-29T03:39:52;98410.97;;;6.67;100.00
52983;BME280;48698;45.736;13.926;2023-12-29T03:44:56;98436.91;;;6.87;100.00
52983;BME280;48698;45.736;13.926;2023-12-29T03:50:01;98320.97;;;6.05;100.00
52983;BME280;48698;45.736;13.926;2023-12-29T03:55:05;98221.09;;;5.50;100.00
52983;BME280;48698;45.736;13.926;2023-12-29T04:00:13;98430.47;;;6.98;100.00
52983;BME280;48698;45.736;13.926;2023-12-29T04:05:17;98257.16;;;5.90;100.00
52983;BME280;48698;45.736;13.926;2023-12-29T04:10:21;98382.06;;;6.62;100.00
52983;BME280;48698;45.736;13.926;2023-12-29T04:15:24;98356.88;;;6.49;100.00
52983;BME280;48698;45.736;13.926;2023-12-29T04:20:28;98359.44;;;6.52;100.00
52983;BME280;48698;45.736;13.926;2023-12-29T04:25:31;98232.63;;;5.85;100.00
52983;BME280;48698;45.736;13.926;2023-12-29T04:30:35;98333.31;;;6.40;100.00
52983;BME280;48698;45.736;13.926;2023-12-29T04:35:39;98266.59;;;6.00;100.00
52983;BME280;48698;45.736;13.926;2023-12-29T04:40:43;98283.09;;;6.08;100.00
52983;BME280;48698;45.736;13.926;2023-12-29T04:45:46;98384.72;;;6.61;100.00
52983;BME280;48698;45.736;13.926;2023-12-29T04:50:50;98408.53;;;6.59;100.00
52983;BME280;48698;45.736;13.926;2023-12-29T04:55:54;98427.13;;;6.92;100.00
52983;BME280;48698;45.736;13.926;2023-12-29T05:00:58;98336.31;;;6.25;100.00
52983;BME280;48698;45.736;13.926;2023-12-29T05:06:02;98419.94;;;6.97;100.00
52983;BME280;48698;45.736;13.926;2023-12-29T05:11:06;98348.75;;;6.57;100.00
52983;BME280;48698;45.736;13.926;2023-12-29T05:16:09;98335.72;;;6.51;100.00
52983;BME280;48698;45.736;13.926;2023-12-29T05:21:17;98411.84;;;7.04;100.00
52983;BME280;48698;45.736;13.926;2023-12-29T05:26:21;98247.22;;;6.01;100.00
52983;BME280;48698;45.736;13.926;2023-12-29T05:31:25;98305.41;;;6.30;100.00
52983;BME280;48698;45.736;13.926;2023-12-29T05:36:28;98288.16;;;6.17;100.00
52983;BME280;48698;45.736;13.926;2023-12-29T05:41:32;98210.47;;;5.56;100.00
52983;BME280;48698;45.736;13.926;2023-12-29T05:46:36;98303.06;;;6.19;100.00
52983;BME280;48698;45.736;13.926;2023-12-29T05:51:39;98451.63;;;6.97;100.00
52983;BME280;48698;45.736;13.926;2023-12-29T05:56:43;98432.56;;;6.84;100.00
52983;BME280;48698;45.736;13.926;2023-12-29T06:01:47;98440.00;;;7.05;100.00
52983;BME280;48698;45.736;13.926;2023-12-29T06:06:50;98378.66;;;6.57;100.00
52983;BME280;48698;45.736;13.926;2023-12-29T06:11:54;98362.25;;;6.45;100.00
52983;BME280;48698;45.736;13.926;2023-12-29T06:16:57;98402.72;;;6.82;100.00
52983;BME280;48698;45.736;13.926;2023-12-29T06:22:01;98379.34;;;6.65;100.00
52983;BME280;48698;45.736;13.926;2023-12-29T06:27:04;98448.00;;;7.01;100.00
52983;BME280;48698;45.736;13.926;2023-12-29T06:32:08;98426.31;;;6.88;100.00
52983;BME280;48698;45.736;13.926;2023-12-29T06:37:12;98437.69;;;6.90;100.00
52983;BME280;48698;45.736;13.926;2023-12-29T06:42:15;98412.97;;;6.93;100.00
52983;BME280;48698;45.736;13.926;2023-12-29T06:47:19;98345.63;;;6.41;100.00
52983;BME280;48698;45.736;13.926;2023-12-29T06:52:23;98270.88;;;6.05;100.00
52983;BME280;48698;45.736;13.926;2023-12-29T06:57:26;98455.53;;;7.16;100.00
52983;BME280;48698;45.736;13.926;2023-12-29T07:02:30;98246.47;;;5.96;100.00
52983;BME280;48698;45.736;13.926;2023-12-29T07:07:35;98203.00;;;5.73;100.00
52983;BME280;48698;45.736;13.926;2023-12-29T07:12:40;98237.09;;;5.83;100.00
52983;BME280;48698;45.736;13.926;2023-12-29T07:17:44;98465.91;;;7.25;100.00
52983;BME280;48698;45.736;13.926;2023-12-29T07:22:47;98390.31;;;6.86;100.00
52983;BME280;48698;45.736;13.926;2023-12-29T07:27:51;98286.78;;;6.38;100.00
52983;BME280;48698;45.736;13.926;2023-12-29T07:32:56;98359.69;;;6.42;100.00
52983;BME280;48698;45.736;13.926;2023-12-29T07:37:59;98280.59;;;6.02;100.00
52983;BME280;48698;45.736;13.926;2023-12-29T07:43:03;98481.75;;;7.25;100.00
52983;BME280;48698;45.736;13.926;2023-12-29T07:48:07;98494.03;;;7.26;100.00
52983;BME280;48698;45.736;13.926;2023-12-29T07:53:13;98429.94;;;6.84;100.00
52983;BME280;48698;45.736;13.926;2023-12-29T07:58:16;98278.78;;;6.05;100.00
52983;BME280;48698;45.736;13.926;2023-12-29T08:03:20;98474.81;;;7.21;100.00
52983;BME280;48698;45.736;13.926;2023-12-29T08:08:23;98386.22;;;6.72;100.00
52983;BME280;48698;45.736;13.926;2023-12-29T08:13:27;98392.97;;;6.84;100.00
52983;BME280;48698;45.736;13.926;2023-12-29T08:18:31;98426.72;;;7.07;100.00
52983;BME280;48698;45.736;13.926;2023-12-29T08:23:35;98483.03;;;7.44;100.00
52983;BME280;48698;45.736;13.926;2023-12-29T08:28:39;98499.63;;;7.49;100.00
52983;BME280;48698;45.736;13.926;2023-12-29T08:33:42;98439.59;;;7.20;100.00
52983;BME280;48698;45.736;13.926;2023-12-29T08:38:46;98510.06;;;7.55;100.00
52983;BME280;48698;45.736;13.926;2023-12-29T08:43:50;98482.94;;;7.47;100.00
52983;BME280;48698;45.736;13.926;2023-12-29T08:48:53;98507.84;;;7.39;100.00
52983;BME280;48698;45.736;13.926;2023-12-29T08:53:56;98463.44;;;7.17;100.00
52983;BME280;48698;45.736;13.926;2023-12-29T08:59:00;98471.84;;;7.33;100.00
52983;BME280;48698;45.736;13.926;2023-12-29T09:04:03;98509.66;;;7.70;100.00
52983;BME280;48698;45.736;13.926;2023-12-29T09:09:07;98499.69;;;7.82;100.00
52983;BME280;48698;45.736;13.926;2023-12-29T09:14:14;98515.81;;;8.05;100.00
52983;BME280;48698;45.736;13.926;2023-12-29T09:19:17;98513.00;;;8.09;100.00
52983;BME280;48698;45.736;13.926;2023-12-29T09:24:36;98451.25;;;7.79;100.00
52983;BME280;48698;45.736;13.926;2023-12-29T09:29:40;98527.53;;;8.28;100.00
52983;BME280;48698;45.736;13.926;2023-12-29T09:34:43;98528.81;;;8.45;100.00
52983;BME280;48698;45.736;13.926;2023-12-29T09:39:47;98530.34;;;8.52;100.00
52983;BME280;48698;45.736;13.926;2023-12-29T09:44:51;98532.16;;;8.51;100.00
52983;BME280;48698;45.736;13.926;2023-12-29T09:49:55;98466.97;;;8.16;100.00
52983;BME280;48698;45.736;13.926;2023-12-29T09:54:59;98532.25;;;8.77;100.00
52983;BME280;48698;45.736;13.926;2023-12-29T10:00:05;98540.41;;;8.71;100.00
52983;BME280;48698;45.736;13.926;2023-12-29T10:05:09;98513.72;;;8.77;100.00
52983;BME280;48698;45.736;13.926;2023-12-29T10:10:15;98504.00;;;8.78;100.00
52983;BME280;48698;45.736;13.926;2023-12-29T10:15:47;98521.84;;;9.01;100.00
52983;BME280;48698;45.736;13.926;2023-12-29T10:21:23;98510.16;;;9.06;100.00
52983;BME280;48698;45.736;13.926;2023-12-29T10:26:30;98502.34;;;9.02;100.00
52983;BME280;48698;45.736;13.926;2023-12-29T10:31:33;98475.25;;;8.94;100.00
52983;BME280;48698;45.736;13.926;2023-12-29T10:36:49;98482.50;;;9.15;100.00
52983;BME280;48698;45.736;13.926;2023-12-29T10:42:03;98468.25;;;9.19;100.00
52983;BME280;48698;45.736;13.926;2023-12-29T10:47:09;98427.16;;;9.06;100.00
52983;BME280;48698;45.736;13.926;2023-12-29T10:52:16;98448.88;;;9.17;100.00
52983;BME280;48698;45.736;13.926;2023-12-29T10:57:20;98250.03;;;7.89;100.00
52983;BME280;48698;45.736;13.926;2023-12-29T11:02:23;98392.13;;;8.98;100.00
52983;BME280;48698;45.736;13.926;2023-12-29T11:07:33;98427.25;;;9.29;100.00
52983;BME280;48698;45.736;13.926;2023-12-29T11:12:38;98383.53;;;9.16;100.00
52983;BME280;48698;45.736;13.926;2023-12-29T11:17:43;98398.09;;;9.29;100.00
52983;BME280;48698;45.736;13.926;2023-12-29T11:22:53;98394.69;;;9.25;100.00
52983;BME280;48698;45.736;13.926;2023-12-29T11:27:57;98383.94;;;9.30;100.00
52983;BME280;48698;45.736;13.926;2023-12-29T11:33:06;98353.41;;;9.18;100.00
52983;BME280;48698;45.736;13.926;2023-12-29T11:43:27;98336.84;;;9.12;100.00
52983;BME280;48698;45.736;13.926;2023-12-29T11:48:59;98352.47;;;9.21;100.00
52983;BME280;48698;45.736;13.926;2023-12-29T11:54:07;98331.81;;;9.30;100.00
52983;BME280;48698;45.736;13.926;2023-12-29T11:59:25;98323.09;;;9.27;100.00
52983;BME280;48698;45.736;13.926;2023-12-29T12:04:37;98280.13;;;8.93;100.00
52983;BME280;48698;45.736;13.926;2023-12-29T12:09:50;98326.53;;;9.29;100.00
52983;BME280;48698;45.736;13.926;2023-12-29T12:14:54;98302.28;;;9.15;100.00
52983;BME280;48698;45.736;13.926;2023-12-29T12:20:03;98313.25;;;9.30;100.00
52983;BME280;48698;45.736;13.926;2023-12-29T12:25:07;98286.31;;;9.18;100.00
52983;BME280;48698;45.736;13.926;2023-12-29T12:30:18;98205.91;;;8.69;100.00
52983;BME280;48698;45.736;13.926;2023-12-29T12:35:21;98225.94;;;8.76;100.00
52983;BME280;48698;45.736;13.926;2023-12-29T12:40:29;98252.25;;;9.07;100.00
52983;BME280;48698;45.736;13.926;2023-12-29T12:45:42;98276.28;;;9.26;100.00
52983;BME280;48698;45.736;13.926;2023-12-29T12:50:46;98280.78;;;9.24;100.00
52983;BME280;48698;45.736;13.926;2023-12-29T12:55:51;98276.44;;;9.21;100.00
52983;BME280;48698;45.736;13.926;2023-12-29T13:00:56;98269.38;;;9.22;100.00
52983;BME280;48698;45.736;13.926;2023-12-29T13:06:00;98210.56;;;8.88;100.00
52983;BME280;48698;45.736;13.926;2023-12-29T13:11:04;98272.00;;;9.22;100.00
52983;BME280;48698;45.736;13.926;2023-12-29T13:16:08;98014.41;;;7.70;100.00
52983;BME280;48698;45.736;13.926;2023-12-29T13:21:17;98249.59;;;9.07;100.00
52983;BME280;48698;45.736;13.926;2023-12-29T13:26:21;98223.13;;;9.06;100.00
52983;BME280;48698;45.736;13.926;2023-12-29T13:31:24;98250.25;;;9.14;100.00
52983;BME280;48698;45.736;13.926;2023-12-29T13:41:33;98223.81;;;8.88;100.00
52983;BME280;48698;45.736;13.926;2023-12-29T13:46:37;98249.59;;;9.07;100.00
52983;BME280;48698;45.736;13.926;2023-12-29T13:51:42;98240.88;;;9.04;100.00
52983;BME280;48698;45.736;13.926;2023-12-29T13:56:52;98232.41;;;8.94;100.00
52983;BME280;48698;45.736;13.926;2023-12-29T14:01:58;98253.88;;;9.11;100.00
52983;BME280;48698;45.736;13.926;2023-12-29T14:07:03;98255.56;;;9.12;100.00
52983;BME280;48698;45.736;13.926;2023-12-29T14:12:06;98264.66;;;9.05;100.00
52983;BME280;48698;45.736;13.926;2023-12-29T14:17:10;98266.94;;;8.91;100.00
52983;BME280;48698;45.736;13.926;2023-12-29T14:22:22;98243.50;;;8.79;100.00
52983;BME280;48698;45.736;13.926;2023-12-29T14:27:25;98276.56;;;8.94;100.00
52983;BME280;48698;45.736;13.926;2023-12-29T14:32:29;98249.78;;;8.76;100.00
52983;BME280;48698;45.736;13.926;2023-12-29T14:37:33;98256.75;;;8.79;100.00
52983;BME280;48698;45.736;13.926;2023-12-29T14:42:36;98250.69;;;8.75;100.00
52983;BME280;48698;45.736;13.926;2023-12-29T14:47:40;98274.13;;;8.88;100.00
52983;BME280;48698;45.736;13.926;2023-12-29T14:52:44;98160.91;;;8.17;100.00
52983;BME280;48698;45.736;13.926;2023-12-29T14:57:47;98275.25;;;8.80;100.00
52983;BME280;48698;45.736;13.926;2023-12-29T15:02:50;98263.03;;;8.76;100.00
52983;BME280;48698;45.736;13.926;2023-12-29T15:07:54;98215.53;;;8.46;100.00
52983;BME280;48698;45.736;13.926;2023-12-29T15:12:57;98210.25;;;8.46;100.00
52983;BME280;48698;45.736;13.926;2023-12-29T15:18:01;98230.97;;;8.59;100.00
52983;BME280;48698;45.736;13.926;2023-12-29T15:23:05;98263.16;;;8.72;100.00
52983;BME280;48698;45.736;13.926;2023-12-29T15:28:09;98268.53;;;8.70;100.00
52983;BME280;48698;45.736;13.926;2023-12-29T15:33:13;98249.69;;;8.53;100.00
52983;BME280;48698;45.736;13.926;2023-12-29T15:38:17;98256.56;;;8.59;100.00
52983;BME280;48698;45.736;13.926;2023-12-29T15:43:22;98235.25;;;8.37;100.00
52983;BME280;48698;45.736;13.926;2023-12-29T15:48:27;98192.31;;;8.01;100.00
52983;BME280;48698;45.736;13.926;2023-12-29T15:53:30;98227.63;;;8.26;100.00
52983;BME280;48698;45.736;13.926;2023-12-29T15:58:35;98275.63;;;8.44;100.00
52983;BME280;48698;45.736;13.926;2023-12-29T16:03:38;98253.53;;;8.45;100.00
52983;BME280;48698;45.736;13.926;2023-12-29T16:08:42;98256.22;;;8.43;100.00
52983;BME280;48698;45.736;13.926;2023-12-29T16:13:45;98236.13;;;8.38;100.00
52983;BME280;48698;45.736;13.926;2023-12-29T16:18:49;98270.66;;;8.59;100.00
52983;BME280;48698;45.736;13.926;2023-12-29T16:23:53;98024.28;;;7.11;100.00
52983;BME280;48698;45.736;13.926;2023-12-29T16:28:56;98262.69;;;8.61;100.00
52983;BME280;48698;45.736;13.926;2023-12-29T16:34:00;98220.66;;;8.24;100.00
52983;BME280;48698;45.736;13.926;2023-12-29T16:39:04;98251.94;;;8.39;100.00
52983;BME280;48698;45.736;13.926;2023-12-29T16:44:07;98012.41;;;6.96;100.00
52983;BME280;48698;45.736;13.926;2023-12-29T16:49:11;98263.94;;;8.49;100.00
52983;BME280;48698;45.736;13.926;2023-12-29T16:54:15;98265.69;;;8.50;100.00
52983;BME280;48698;45.736;13.926;2023-12-29T16:59:19;98187.56;;;8.11;100.00
52983;BME280;48698;45.736;13.926;2023-12-29T17:04:25;98217.09;;;8.25;100.00
52983;BME280;48698;45.736;13.926;2023-12-29T17:09:29;98261.09;;;8.55;100.00
52983;BME280;48698;45.736;13.926;2023-12-29T17:14:33;98174.59;;;8.03;100.00
52983;BME280;48698;45.736;13.926;2023-12-29T17:19:36;98126.63;;;7.60;100.00
52983;BME280;48698;45.736;13.926;2023-12-29T17:24:40;98262.25;;;8.48;100.00
52983;BME280;48698;45.736;13.926;2023-12-29T17:29:44;98216.34;;;8.21;100.00
52983;BME280;48698;45.736;13.926;2023-12-29T17:34:50;98064.53;;;7.19;100.00
52983;BME280;48698;45.736;13.926;2023-12-29T17:39:53;98272.00;;;8.46;100.00
52983;BME280;48698;45.736;13.926;2023-12-29T17:44:57;98216.38;;;8.20;100.00
52983;BME280;48698;45.736;13.926;2023-12-29T17:50:01;98251.66;;;8.48;100.00
52983;BME280;48698;45.736;13.926;2023-12-29T17:55:06;98265.47;;;8.56;100.00
52983;BME280;48698;45.736;13.926;2023-12-29T18:00:10;98225.78;;;8.30;100.00
52983;BME280;48698;45.736;13.926;2023-12-29T18:05:14;98210.31;;;8.16;100.00
52983;BME280;48698;45.736;13.926;2023-12-29T18:10:18;98242.19;;;8.41;100.00
52983;BME280;48698;45.736;13.926;2023-12-29T18:15:21;98223.19;;;8.28;100.00
52983;BME280;48698;45.736;13.926;2023-12-29T18:20:25;98215.25;;;8.27;100.00
52983;BME280;48698;45.736;13.926;2023-12-29T18:25:29;98194.63;;;8.10;100.00
52983;BME280;48698;45.736;13.926;2023-12-29T18:30:34;98249.59;;;8.56;100.00
52983;BME280;48698;45.736;13.926;2023-12-29T18:35:37;98201.28;;;8.22;100.00
52983;BME280;48698;45.736;13.926;2023-12-29T18:40:42;98151.97;;;7.95;100.00
52983;BME280;48698;45.736;13.926;2023-12-29T18:45:46;98138.75;;;7.95;100.00
52983;BME280;48698;45.736;13.926;2023-12-29T18:50:49;98259.28;;;8.57;100.00
52983;BME280;48698;45.736;13.926;2023-12-29T18:55:53;98006.56;;;7.14;100.00
52983;BME280;48698;45.736;13.926;2023-12-29T19:00:56;98257.44;;;8.59;100.00
52983;BME280;48698;45.736;13.926;2023-12-29T19:06:08;98140.72;;;7.88;100.00
52983;BME280;48698;45.736;13.926;2023-12-29T19:11:18;98108.91;;;7.63;100.00
52983;BME280;48698;45.736;13.926;2023-12-29T19:16:22;98092.34;;;7.58;100.00
52983;BME280;48698;45.736;13.926;2023-12-29T19:21:26;98178.41;;;8.21;100.00
52983;BME280;48698;45.736;13.926;2023-12-29T19:26:31;98237.47;;;8.49;100.00
52983;BME280;48698;45.736;13.926;2023-12-29T19:31:36;98252.88;;;8.64;100.00
52983;BME280;48698;45.736;13.926;2023-12-29T19:36:42;98245.72;;;8.66;100.00
52983;BME280;48698;45.736;13.926;2023-12-29T19:41:46;98016.25;;;7.14;100.00
52983;BME280;48698;45.736;13.926;2023-12-29T19:46:49;98237.38;;;8.52;100.00
52983;BME280;48698;45.736;13.926;2023-12-29T19:51:55;98167.22;;;8.13;100.00
52983;BME280;48698;45.736;13.926;2023-12-29T19:56:58;98257.19;;;8.67;100.00
52983;BME280;48698;45.736;13.926;2023-12-29T20:02:02;98117.06;;;7.84;100.00
52983;BME280;48698;45.736;13.926;2023-12-29T20:07:05;98228.28;;;8.35;100.00
52983;BME280;48698;45.736;13.926;2023-12-29T20:12:09;98178.63;;;8.15;100.00
52983;BME280;48698;45.736;13.926;2023-12-29T20:17:12;98255.78;;;8.55;100.00
52983;BME280;48698;45.736;13.926;2023-12-29T20:22:16;97993.59;;;7.07;100.00
52983;BME280;48698;45.736;13.926;2023-12-29T20:27:21;98246.84;;;8.59;100.00
52983;BME280;48698;45.736;13.926;2023-12-29T20:32:24;98187.34;;;8.18;100.00
52983;BME280;48698;45.736;13.926;2023-12-29T20:37:28;98198.34;;;8.32;100.00
52983;BME280;48698;45.736;13.926;2023-12-29T20:42:31;98091.50;;;7.56;100.00
52983;BME280;48698;45.736;13.926;2023-12-29T20:47:35;98119.00;;;7.78;100.00
52983;BME280;48698;45.736;13.926;2023-12-29T20:52:39;98169.31;;;8.03;100.00
52983;BME280;48698;45.736;13.926;2023-12-29T20:57:43;98168.06;;;8.15;100.00
52983;BME280;48698;45.736;13.926;2023-12-29T21:02:48;97983.22;;;7.01;100.00
52983;BME280;48698;45.736;13.926;2023-12-29T21:07:56;98201.22;;;8.25;100.00
52983;BME280;48698;45.736;13.926;2023-12-29T21:13:00;98148.69;;;7.87;100.00
52983;BME280;48698;45.736;13.926;2023-12-29T21:18:04;98195.16;;;8.21;100.00
52983;BME280;48698;45.736;13.926;2023-12-29T21:23:08;98126.75;;;7.83;100.00
52983;BME280;48698;45.736;13.926;2023-12-29T21:28:12;98220.03;;;8.44;100.00
52983;BME280;48698;45.736;13.926;2023-12-29T21:33:16;98151.13;;;7.93;100.00
52983;BME280;48698;45.736;13.926;2023-12-29T21:38:19;98192.88;;;8.11;100.00
52983;BME280;48698;45.736;13.926;2023-12-29T21:43:23;98143.50;;;7.84;100.00
52983;BME280;48698;45.736;13.926;2023-12-29T21:48:26;98225.66;;;8.33;100.00
52983;BME280;48698;45.736;13.926;2023-12-29T21:53:31;98233.50;;;8.36;100.00
52983;BME280;48698;45.736;13.926;2023-12-29T22:03:54;98248.38;;;8.40;100.00
52983;BME280;48698;45.736;13.926;2023-12-29T22:08:59;98165.84;;;8.01;100.00
52983;BME280;48698;45.736;13.926;2023-12-29T22:14:04;98234.81;;;8.49;100.00
52983;BME280;48698;45.736;13.926;2023-12-29T22:19:08;98223.84;;;8.35;100.00
52983;BME280;48698;45.736;13.926;2023-12-29T22:24:12;98183.25;;;8.08;100.00
52983;BME280;48698;45.736;13.926;2023-12-29T22:29:15;98224.72;;;8.08;100.00
52983;BME280;48698;45.736;13.926;2023-12-29T22:34:19;98160.38;;;7.79;100.00
52983;BME280;48698;45.736;13.926;2023-12-29T22:39:23;98047.16;;;7.12;100.00
52983;BME280;48698;45.736;13.926;2023-12-29T22:44:27;97960.50;;;6.67;100.00
52983;BME280;48698;45.736;13.926;2023-12-29T22:49:31;98196.00;;;8.22;100.00
52983;BME280;48698;45.736;13.926;2023-12-29T22:54:35;98210.19;;;7.93;100.00
52983;BME280;48698;45.736;13.926;2023-12-29T22:59:38;98217.16;;;7.96;100.00
52983;BME280;48698;45.736;13.926;2023-12-29T23:04:42;98196.75;;;7.99;100.00
52983;BME280;48698;45.736;13.926;2023-12-29T23:09:45;98178.84;;;7.81;100.00
52983;BME280;48698;45.736;13.926;2023-12-29T23:14:49;98049.72;;;7.13;100.00
52983;BME280;48698;45.736;13.926;2023-12-29T23:19:52;98170.56;;;7.64;100.00
52983;BME280;48698;45.736;13.926;2023-12-29T23:24:55;98165.47;;;7.58;100.00
52983;BME280;48698;45.736;13.926;2023-12-29T23:29:59;98085.59;;;7.20;100.00
52983;BME280;48698;45.736;13.926;2023-12-29T23:35:05;98136.72;;;7.47;100.00
52983;BME280;48698;45.736;13.926;2023-12-29T23:40:21;98105.31;;;7.38;100.00
52983;BME280;48698;45.736;13.926;2023-12-29T23:45:25;98127.72;;;7.54;100.00
52983;BME280;48698;45.736;13.926;2023-12-29T23:50:28;98199.50;;;7.96;100.00
52983;BME280;48698;45.736;13.926;2023-12-29T23:55:34;97954.00;;;6.50;100.00
